Time;durP1;ratioP1;P1;durP2;ratioP2;P2;SDS_P1;SDS_P2;PMS_P1;PMS_P2;Temp;Humidity;BMP_temperature;BMP_pressure;BME280_temperature;BME280_humidity;BME280_pressure;Samples;Min_cycle;Max_cycle;Signal;HPM_P1;HPM_P2
2023/11/18 00:01:20;;;;;;;14.57;11.95;;;;;;;10.87;100.00;101876.72;5046920;28;20484;-74
2023/11/18 00:03:46;;;;;;;16.30;13.25;;;;;;;10.84;100.00;101886.03;5048403;28;20028;-75
2023/11/18 00:06:12;;;;;;;13.50;11.60;;;;;;;10.41;100.00;101811.34;5047629;28;20044;-75
2023/11/18 00:08:38;;;;;;;13.77;11.10;;;;;;;10.60;100.00;101827.50;5030467;28;20057;-75
2023/11/18 00:11:03;;;;;;;12.98;11.63;;;;;;;10.94;100.00;101886.06;5047966;28;20071;-72
2023/11/18 00:13:29;;;;;;;11.10;9.80;;;;;;;10.67;100.00;101835.13;5046660;28;20113;-75
2023/11/18 00:15:55;;;;;;;11.50;9.70;;;;;;;10.83;100.00;101876.72;5047743;28;20048;-75
2023/11/18 00:18:20;;;;;;;13.20;10.43;;;;;;;10.22;100.00;101779.94;5047769;28;20025;-75
2023/11/18 00:20:46;;;;;;;11.20;9.85;;;;;;;10.59;100.00;101824.09;5031495;28;20033;-76
2023/11/18 00:23:11;;;;;;;12.85;9.57;;;;;;;10.85;100.00;101870.78;5047396;28;20168;-76
2023/11/18 00:25:39;;;;;;;10.43;9.35;;;;;;;10.88;100.00;101875.00;5048284;28;20072;-76
2023/11/18 00:28:07;;;;;;;12.43;9.60;;;;;;;10.84;100.00;101858.03;5048833;28;20050;-77
2023/11/18 00:30:33;;;;;;;13.32;9.98;;;;;;;10.68;100.00;101835.97;5047957;28;20040;-76
2023/11/18 00:32:58;;;;;;;10.55;8.18;;;;;;;10.78;100.00;101858.88;5047046;28;20040;-74
2023/11/18 00:35:24;;;;;;;10.50;8.25;;;;;;;10.48;100.00;101813.03;5046653;28;20037;-74
2023/11/18 00:37:49;;;;;;;9.43;8.23;;;;;;;10.51;100.00;101819.84;5030103;28;20145;-73
2023/11/18 00:40:17;;;;;;;14.85;8.45;;;;;;;10.75;100.00;101836.00;5048137;28;20431;-75
2023/11/18 00:42:43;;;;;;;9.25;8.18;;;;;;;10.82;100.00;101826.66;5047822;28;20029;-74
2023/11/18 00:45:12;;;;;;;9.43;8.43;;;;;;;10.88;100.00;101850.41;5048530;28;20024;-75
2023/11/18 00:47:38;;;;;;;10.15;8.00;;;;;;;11.01;100.00;101874.19;5048248;28;20029;-74
2023/11/18 00:50:07;;;;;;;9.07;7.47;;;;;;;11.07;100.00;101922.56;5048749;28;20032;-75
2023/11/18 00:52:33;;;;;;;8.80;7.90;;;;;;;10.65;100.00;101859.72;5050967;28;20036;-74
2023/11/18 00:54:59;;;;;;;6.40;3.72;;;;;;;11.05;100.00;101975.16;5033869;28;20112;-75
2023/11/18 00:57:24;;;;;;;3.15;1.52;;;;;;;11.30;100.00;102064.34;5051755;28;20059;-73
2023/11/18 00:59:50;;;;;;;1.88;1.25;;;;;;;11.49;100.00;102172.19;5051416;28;20033;-75
2023/11/18 01:02:16;;;;;;;1.67;1.10;;;;;;;11.02;100.00;102108.34;5034497;28;20160;-75
2023/11/18 01:04:41;;;;;;;0.90;0.80;;;;;;;10.97;100.00;102116.81;5051896;28;20051;-73
2023/11/18 01:07:08;;;;;;;0.93;0.80;;;;;;;11.22;100.00;102183.13;5046633;28;20045;-75
2023/11/18 01:09:38;;;;;;;1.00;0.80;;;;;;;11.33;100.00;102180.63;5031910;28;20029;-74
2023/11/18 01:12:05;;;;;;;1.58;0.90;;;;;;;11.30;100.00;102195.88;5029506;28;20112;-73
2023/11/18 01:14:31;;;;;;;1.35;0.80;;;;;;;11.21;100.00;102172.94;5030685;28;20045;-74
2023/11/18 01:16:56;;;;;;;1.15;0.90;;;;;;;11.28;100.00;102151.75;5031667;28;20104;-75
2023/11/18 01:19:23;;;;;;;0.90;0.80;;;;;;;11.21;100.00;102166.13;5031451;28;20032;-73
2023/11/18 01:21:49;;;;;;;1.13;1.02;;;;;;;11.03;100.00;102124.47;5031589;28;20021;-75
2023/11/18 01:24:16;;;;;;;1.10;1.00;;;;;;;10.70;100.00;102064.06;5031207;28;20037;-74
2023/11/18 01:26:41;;;;;;;1.40;0.98;;;;;;;10.93;100.00;102080.31;5031442;28;20037;-74
2023/11/18 01:29:07;;;;;;;1.73;0.80;;;;;;;11.23;100.00;102123.72;5030987;28;20033;-74
2023/11/18 01:31:33;;;;;;;1.20;0.85;;;;;;;10.80;100.00;102024.25;5031047;28;20037;-73
2023/11/18 01:33:59;;;;;;;1.20;0.98;;;;;;;11.29;100.00;102071.94;5031412;28;20025;-73
2023/11/18 01:36:25;;;;;;;1.10;0.90;;;;;;;11.12;100.00;102064.28;5030982;28;20067;-74
2023/11/18 01:38:50;;;;;;;1.08;0.90;;;;;;;10.62;100.00;101973.34;5030549;28;20037;-75
2023/11/18 01:41:16;;;;;;;1.60;0.90;;;;;;;10.42;100.00;101904.56;5031513;28;20499;-73
2023/11/18 01:43:46;;;;;;;1.60;0.93;;;;;;;10.70;100.00;101936.03;5030881;28;20034;-73
2023/11/18 01:46:12;;;;;;;0.88;0.80;;;;;;;11.06;100.00;101994.66;5030567;28;20026;-75
2023/11/18 01:48:39;;;;;;;1.05;0.75;;;;;;;10.51;100.00;101873.25;5030933;28;20040;-74
2023/11/18 01:51:07;;;;;;;0.73;0.70;;;;;;;10.49;100.00;101837.66;5029860;28;20056;-75
2023/11/18 01:53:35;;;;;;;0.77;0.70;;;;;;;10.55;100.00;101829.16;5029254;28;20025;-74
2023/11/18 01:56:02;;;;;;;2.28;0.80;;;;;;;11.05;100.00;101892.00;5030508;28;20032;-75
2023/11/18 01:58:30;;;;;;;0.90;0.65;;;;;;;10.62;100.00;101810.56;5030166;28;20033;-75
2023/11/18 02:00:57;;;;;;;0.60;0.57;;;;;;;10.90;100.00;101853.81;5029931;28;20037;-75
2023/11/18 02:03:23;;;;;;;1.02;0.60;;;;;;;10.19;100.00;101741.81;5029975;28;20033;-73
2023/11/18 02:05:48;;;;;;;0.57;0.50;;;;;;;10.83;100.00;101815.66;5028456;28;20041;-73
2023/11/18 02:08:14;;;;;;;0.80;0.50;;;;;;;10.19;100.00;101682.50;5030173;28;20034;-75
2023/11/18 02:10:50;;;;;;;0.50;0.47;;;;;;;10.21;100.00;101671.50;5030844;28;20135;-75
2023/11/18 02:13:26;;;;;;;0.60;0.60;;;;;;;10.58;100.00;101728.28;5029812;28;20086;-75
2023/11/18 02:15:57;;;;;;;0.68;0.57;;;;;;;10.69;100.00;101725.75;5028998;28;20600;-73
2023/11/18 02:18:25;;;;;;;0.82;0.52;;;;;;;10.80;100.00;101734.22;5028540;28;20041;-75
2023/11/18 02:20:52;;;;;;;0.77;0.60;;;;;;;10.77;100.00;101755.44;5030946;28;20037;-75
2023/11/18 02:23:17;;;;;;;0.70;0.70;;;;;;;10.15;100.00;101635.91;5029545;28;20037;-76
2023/11/18 02:25:46;;;;;;;0.95;0.60;;;;;;;10.85;100.00;101748.66;5029557;28;20025;-75
2023/11/18 02:28:12;;;;;;;0.70;0.70;;;;;;;10.78;100.00;101718.09;5028735;28;20037;-74
2023/11/18 02:30:38;;;;;;;1.60;0.82;;;;;;;10.44;100.00;101664.72;5027807;28;20026;-73
2023/11/18 02:33:22;;;;;;;1.75;1.13;;;;;;;10.35;100.00;101644.41;5029288;28;20032;-74
2023/11/18 02:35:59;;;;;;;1.83;1.30;;;;;;;10.73;100.00;101702.00;5028959;28;20045;-73
2023/11/18 02:38:35;;;;;;;1.50;1.40;;;;;;;10.61;100.00;101653.69;5029106;28;20057;-72
2023/11/18 02:41:08;;;;;;;1.33;1.15;;;;;;;10.57;100.00;101644.38;5043915;28;20120;-73
2023/11/18 02:43:37;;;;;;;1.48;1.17;;;;;;;10.54;100.00;101613.88;5028399;28;20518;-75
2023/11/18 02:46:04;;;;;;;2.15;1.58;;;;;;;10.52;100.00;101595.22;5028827;28;20116;-74
2023/11/18 02:48:32;;;;;;;1.70;1.50;;;;;;;10.53;100.00;101574.88;5028939;28;20033;-75
2023/11/18 02:50:58;;;;;;;1.55;1.20;;;;;;;10.48;100.00;101561.31;5028454;28;20507;-74
2023/11/18 02:53:24;;;;;;;3.50;0.82;;;;;;;10.20;100.00;101496.97;5029424;28;20060;-74
2023/11/18 02:55:52;;;;;;;1.30;1.10;;;;;;;10.50;100.00;101535.91;5029136;28;20026;-74
2023/11/18 02:58:18;;;;;;;1.33;1.10;;;;;;;10.19;100.00;101456.31;5029254;28;20511;-75
2023/11/18 03:00:44;;;;;;;1.02;0.90;;;;;;;10.53;100.00;101500.28;5029471;28;20021;-78
2023/11/18 03:03:10;;;;;;;1.80;1.20;;;;;;;10.45;100.00;101510.47;5028546;28;20033;-75
2023/11/18 03:05:36;;;;;;;1.40;1.23;;;;;;;10.07;100.00;101443.59;5035407;28;20178;-75
2023/11/18 03:08:05;;;;;;;3.35;1.83;;;;;;;10.42;100.00;101513.00;5049097;28;20098;-72
2023/11/18 03:10:34;;;;;;;2.65;1.80;;;;;;;10.23;100.00;101463.94;5048475;28;20418;-73
2023/11/18 03:13:01;;;;;;;2.05;1.75;;;;;;;10.41;100.00;101496.94;5048128;28;20411;-74
2023/11/18 03:15:27;;;;;;;2.08;1.45;;;;;;;9.97;100.00;101426.69;5047288;28;20032;-73
2023/11/18 03:17:52;;;;;;;2.40;1.40;;;;;;;10.35;100.00;101499.50;5049083;28;20059;-74
2023/11/18 03:20:19;;;;;;;2.00;1.50;;;;;;;10.00;100.00;101434.31;5048499;28;20037;-73
2023/11/18 03:22:46;;;;;;;1.75;1.30;;;;;;;10.34;100.00;101492.69;5047343;28;20178;-74
2023/11/18 03:25:13;;;;;;;3.40;1.55;;;;;;;9.61;100.00;101361.56;5048354;28;20128;-73
2023/11/18 03:27:39;;;;;;;1.48;1.30;;;;;;;9.81;100.00;101399.63;5046697;28;20033;-74
2023/11/18 03:30:09;;;;;;;2.17;1.50;;;;;;;10.05;100.00;101430.06;5030629;28;20115;-73
2023/11/18 03:32:35;;;;;;;1.52;1.30;;;;;;;9.88;100.00;101376.78;5047305;28;20127;-74
2023/11/18 03:35:04;;;;;;;1.20;1.10;;;;;;;9.85;100.00;101360.66;5048614;28;20037;-74
2023/11/18 03:37:29;;;;;;;1.10;1.00;;;;;;;10.17;100.00;101423.28;5047281;28;20056;-74
2023/11/18 03:39:55;;;;;;;2.30;0.93;;;;;;;10.18;100.00;101417.34;5030479;28;20525;-73
2023/11/18 03:42:21;;;;;;;1.85;1.20;;;;;;;9.73;100.00;101320.91;5030511;28;20037;-74
2023/11/18 03:44:47;;;;;;;1.33;1.10;;;;;;;9.99;100.00;101376.72;5047649;28;20033;-74
2023/11/18 03:47:14;;;;;;;1.45;0.95;;;;;;;10.10;100.00;101378.41;5047507;28;20067;-73
2023/11/18 03:49:40;;;;;;;0.90;0.80;;;;;;;9.98;100.00;101342.84;5047260;28;20483;-74
2023/11/18 03:52:06;;;;;;;1.25;1.00;;;;;;;10.00;100.00;101353.03;5048005;28;20035;-70
2023/11/18 03:54:31;;;;;;;0.80;0.80;;;;;;;9.40;100.00;101252.47;5030702;28;20112;-75
2023/11/18 03:56:57;;;;;;;1.52;0.90;;;;;;;9.47;100.00;101272.75;5047178;28;20036;-75
2023/11/18 03:59:22;;;;;;;0.98;0.70;;;;;;;9.41;100.00;101241.47;5047445;28;20117;-73
2023/11/18 04:01:50;;;;;;;1.30;0.80;;;;;;;9.10;100.00;101189.13;5046911;28;20083;-73
2023/11/18 04:04:16;;;;;;;0.90;0.88;;;;;;;9.53;100.00;101267.66;5047959;28;20384;-73
2023/11/18 04:06:42;;;;;;;2.60;0.90;;;;;;;9.28;100.00;101207.69;5045479;28;20052;-75
2023/11/18 04:09:09;;;;;;;2.10;0.93;;;;;;;9.54;100.00;101246.53;5048437;28;20032;-74
2023/11/18 04:11:35;;;;;;;2.67;0.90;;;;;;;9.73;100.00;101280.28;5046928;28;20033;-75
2023/11/18 04:14:00;;;;;;;1.83;0.90;;;;;;;9.77;100.00;101309.91;5030553;28;20024;-75
2023/11/18 04:16:26;;;;;;;1.02;0.90;;;;;;;9.74;100.00;101312.47;5047927;28;20028;-72
2023/11/18 04:18:51;;;;;;;1.45;0.90;;;;;;;9.63;100.00;101283.72;5047735;28;20082;-74
2023/11/18 04:21:17;;;;;;;1.55;0.80;;;;;;;9.71;100.00;101294.69;5047216;28;20484;-74
2023/11/18 04:23:43;;;;;;;1.38;0.80;;;;;;;9.74;100.00;101276.06;5029576;28;20041;-75
2023/11/18 04:26:09;;;;;;;2.40;1.10;;;;;;;9.24;100.00;101184.84;5051160;28;20150;-75
2023/11/18 04:28:35;;;;;;;1.40;0.68;;;;;;;9.69;100.00;101248.13;5050626;28;20644;-73
2023/11/18 04:31:02;;;;;;;0.90;0.70;;;;;;;9.75;100.00;101265.03;5052361;28;20078;-72
2023/11/18 04:33:29;;;;;;;0.70;0.60;;;;;;;9.78;100.00;101257.44;5051708;28;20033;-75
2023/11/18 04:35:58;;;;;;;0.82;0.60;;;;;;;9.47;100.00;101204.22;5034673;28;20115;-74
2023/11/18 04:38:25;;;;;;;0.60;0.52;;;;;;;9.46;100.00;101220.31;5034238;28;20032;-74
2023/11/18 04:40:51;;;;;;;1.42;0.68;;;;;;;9.83;100.00;101264.16;5051744;28;20025;-74
2023/11/18 04:43:17;;;;;;;0.82;0.60;;;;;;;9.69;100.00;101245.59;5052302;28;20036;-73
2023/11/18 04:45:42;;;;;;;0.80;0.60;;;;;;;9.63;100.00;101260.84;5051908;28;20033;-76
2023/11/18 04:48:08;;;;;;;0.80;0.60;;;;;;;9.61;100.00;101270.16;5051927;28;20545;-77
2023/11/18 04:50:34;;;;;;;0.93;0.80;;;;;;;9.70;100.00;101280.31;5034167;28;20029;-75
2023/11/18 04:53:00;;;;;;;1.65;0.73;;;;;;;9.59;100.00;101257.50;5050681;28;20123;-73
2023/11/18 04:55:28;;;;;;;1.40;0.88;;;;;;;9.60;100.00;101240.56;5049698;28;20083;-77
2023/11/18 04:57:54;;;;;;;0.98;0.75;;;;;;;9.60;100.00;101261.72;5050615;28;20051;-81
2023/11/18 05:00:20;;;;;;;1.98;0.68;;;;;;;9.76;100.00;101267.59;5052658;28;20555;-77
2023/11/18 05:02:47;;;;;;;0.50;0.50;;;;;;;9.63;100.00;101218.56;5051650;28;20543;-75
2023/11/18 05:05:14;;;;;;;0.90;0.55;;;;;;;9.20;100.00;101191.63;5048129;28;20033;-77
2023/11/18 05:07:40;;;;;;;0.95;0.75;;;;;;;9.29;100.00;101193.31;5051125;28;20032;-72
2023/11/18 05:10:12;;;;;;;1.15;0.50;;;;;;;9.66;100.00;101239.69;5049670;28;20117;-73
2023/11/18 05:12:39;;;;;;;0.82;0.45;;;;;;;9.66;100.00;101222.78;5032701;28;20047;-73
2023/11/18 05:15:07;;;;;;;1.35;0.60;;;;;;;9.12;100.00;101151.91;5051163;28;20025;-73
2023/11/18 05:17:39;;;;;;;2.45;0.73;;;;;;;9.52;100.00;101268.53;5050931;28;20021;-76
2023/11/18 05:20:08;;;;;;;2.30;0.50;;;;;;;9.20;100.00;101190.78;5032587;28;20438;-72
2023/11/18 05:22:34;;;;;;;1.02;0.50;;;;;;;9.32;100.00;101232.19;5031915;28;20095;-74
2023/11/18 05:24:59;;;;;;;0.90;0.68;;;;;;;9.15;100.00;101218.69;5048444;28;20032;-75
2023/11/18 05:27:26;;;;;;;0.85;0.60;;;;;;;9.32;100.00;101298.19;5050090;28;20036;-74
2023/11/18 05:29:54;;;;;;;1.00;0.55;;;;;;;8.96;100.00;101236.47;5048107;28;20060;-73
2023/11/18 05:32:21;;;;;;;0.93;0.60;;;;;;;9.33;100.00;101304.09;5050212;28;20505;-73
2023/11/18 05:34:46;;;;;;;0.82;0.60;;;;;;;9.19;100.00;101305.81;5049001;28;20045;-74
2023/11/18 05:37:12;;;;;;;1.00;0.63;;;;;;;8.76;100.00;101249.19;5031460;28;20039;-74
2023/11/18 05:39:43;;;;;;;0.80;0.70;;;;;;;8.88;100.00;101261.00;5032589;28;20033;-73
2023/11/18 05:42:10;;;;;;;0.70;0.70;;;;;;;9.13;100.00;101303.28;5047996;28;20039;-73
2023/11/18 05:44:39;;;;;;;1.17;0.40;;;;;;;9.14;100.00;101287.19;5050355;28;20061;-74
2023/11/18 05:47:05;;;;;;;0.85;0.60;;;;;;;8.70;100.00;101229.75;5050495;28;20108;-74
2023/11/18 05:49:30;;;;;;;0.40;0.40;;;;;;;8.97;100.00;101294.84;5050218;28;20033;-74
2023/11/18 05:51:57;;;;;;;1.23;0.70;;;;;;;8.64;100.00;101239.88;5044376;28;20032;-74
2023/11/18 05:54:22;;;;;;;3.08;1.85;;;;;;;8.62;100.00;101236.50;5031763;28;20043;-76
2023/11/18 05:56:48;;;;;;;7.18;2.88;;;;;;;8.83;100.00;101261.03;5049988;28;20120;-77
2023/11/18 05:59:13;;;;;;;2.88;1.92;;;;;;;8.49;100.00;101190.91;5049507;28;20400;-77
2023/11/18 06:01:39;;;;;;;6.75;4.85;;;;;;;8.90;100.00;101241.56;5030422;28;20120;-73
2023/11/18 06:04:08;;;;;;;1.00;0.60;;;;;;;9.06;100.00;101288.91;5048980;28;20045;-72
2023/11/18 06:06:34;;;;;;;1.65;0.50;;;;;;;8.31;100.00;101153.72;5048172;28;20128;-77
2023/11/18 06:09:04;;;;;;;2.80;1.70;;;;;;;9.09;100.00;101238.19;5049769;28;20025;-75
2023/11/18 06:11:34;;;;;;;0.98;0.60;;;;;;;8.74;100.00;101201.00;5049537;28;20488;-78
2023/11/18 06:14:00;;;;;;;0.80;0.60;;;;;;;8.65;100.00;101190.91;5048571;28;20025;-75
2023/11/18 06:16:26;;;;;;;1.38;0.60;;;;;;;9.05;100.00;101233.94;5032018;28;20411;-77
2023/11/18 06:18:54;;;;;;;1.42;0.70;;;;;;;8.54;100.00;101162.16;5048788;28;20041;-74
2023/11/18 06:21:24;;;;;;;0.98;0.60;;;;;;;9.04;100.00;101233.09;5030374;28;20035;-75
2023/11/18 06:23:50;;;;;;;0.88;0.40;;;;;;;8.56;100.00;101140.19;5049297;28;20049;-74
2023/11/18 06:26:18;;;;;;;0.70;0.50;;;;;;;8.54;100.00;101135.97;5048133;28;20037;-75
2023/11/18 06:28:45;;;;;;;0.80;0.47;;;;;;;8.91;100.00;101178.19;5049666;28;20087;-78
2023/11/18 06:31:11;;;;;;;1.10;0.70;;;;;;;9.01;100.00;101163.78;5047252;28;20116;-74
2023/11/18 06:33:45;;;;;;;0.50;0.38;;;;;;;8.89;100.00;101156.22;5047666;28;20075;-78
2023/11/18 06:36:13;;;;;;;0.85;0.60;;;;;;;8.88;100.00;101154.50;5049209;28;20628;-75
2023/11/18 06:38:38;;;;;;;2.05;0.63;;;;;;;8.80;100.00;101108.88;5049335;28;20111;-75
2023/11/18 06:41:05;;;;;;;2.30;0.95;;;;;;;8.84;100.00;101099.56;5048057;28;20115;-77
2023/11/18 06:43:45;;;;;;;3.22;1.10;;;;;;;8.83;100.00;101082.69;5049550;28;20083;-75
2023/11/18 06:46:14;;;;;;;1.17;0.98;;;;;;;8.77;100.00;101055.66;5048237;28;20053;-77
2023/11/18 06:48:41;;;;;;;0.52;0.40;;;;;;;8.73;100.00;101067.50;5048103;28;20029;-77
2023/11/18 06:51:08;;;;;;;0.85;0.70;;;;;;;8.75;100.00;101050.59;5048920;28;20056;-77
2023/11/18 06:53:34;;;;;;;0.60;0.40;;;;;;;8.56;100.00;100993.22;5048045;28;20051;-73
2023/11/18 06:56:00;;;;;;;1.13;0.52;;;;;;;8.72;100.00;101037.94;5048629;28;20102;-75
2023/11/18 06:58:25;;;;;;;0.32;0.32;;;;;;;8.82;100.00;101025.22;5047562;28;20867;-79
2023/11/18 07:00:51;;;;;;;1.70;0.60;;;;;;;8.83;100.00;101035.38;5047925;28;20075;-80
2023/11/18 07:03:16;;;;;;;0.70;0.43;;;;;;;8.71;100.00;100995.66;5049266;28;20081;-78
2023/11/18 07:05:43;;;;;;;1.08;0.52;;;;;;;8.77;100.00;101001.56;5049368;28;20049;-80
2023/11/18 07:08:08;;;;;;;1.23;0.60;;;;;;;8.37;100.00;100940.91;5049104;28;20025;-77
2023/11/18 07:10:34;;;;;;;0.40;0.40;;;;;;;8.43;100.00;100940.91;5031467;28;20025;-72
2023/11/18 07:13:00;;;;;;;1.20;0.88;;;;;;;8.85;100.00;101004.94;5047613;28;20078;-77
2023/11/18 07:15:25;;;;;;;1.67;0.60;;;;;;;8.90;100.00;101036.16;5029588;28;20140;-75
2023/11/18 07:17:51;;;;;;;0.90;0.73;;;;;;;8.88;100.00;101037.88;5048191;28;20033;-73
2023/11/18 07:20:17;;;;;;;8.43;6.40;;;;;;;8.69;100.00;101035.38;5047804;28;20104;-78
2023/11/18 07:22:42;;;;;;;5.10;4.32;;;;;;;8.84;100.00;101072.53;5047059;28;20122;-78
2023/11/18 07:25:09;;;;;;;3.95;3.45;;;;;;;8.33;100.00;101005.09;5048452;28;20036;-80
2023/11/18 07:27:35;;;;;;;3.55;3.00;;;;;;;8.80;100.00;101070.00;5047073;28;20024;-78
2023/11/18 07:30:01;;;;;;;1.35;1.10;;;;;;;8.70;100.00;101041.31;5048202;28;20036;-76
2023/11/18 07:32:27;;;;;;;2.13;1.58;;;;;;;8.67;100.00;101052.31;5048532;28;20104;-78
2023/11/18 07:34:52;;;;;;;2.00;1.08;;;;;;;8.66;100.00;101017.66;5047946;28;20418;-78
2023/11/18 07:37:18;;;;;;;2.60;1.67;;;;;;;9.07;100.00;101011.59;5048215;28;20515;-76
2023/11/18 07:39:48;;;;;;;2.70;1.70;;;;;;;8.41;100.00;100927.41;5030694;28;20029;-77
2023/11/18 07:42:17;;;;;;;3.20;1.90;;;;;;;8.79;100.00;100959.31;5047398;28;20025;-74
2023/11/18 07:44:43;;;;;;;2.47;1.90;;;;;;;8.36;100.00;100935.88;5048743;28;20055;-75
2023/11/18 07:47:08;;;;;;;7.00;2.13;;;;;;;8.58;100.00;100937.44;5048555;28;20495;-74
2023/11/18 07:49:35;;;;;;;3.25;1.70;;;;;;;9.02;100.00;101025.97;5047539;28;20036;-73
2023/11/18 07:52:02;;;;;;;2.65;1.80;;;;;;;8.44;100.00;100951.84;5047084;28;20120;-75
2023/11/18 07:54:28;;;;;;;2.08;1.50;;;;;;;8.91;100.00;100989.69;5047635;28;20041;-77
2023/11/18 07:56:53;;;;;;;3.15;1.98;;;;;;;8.58;100.00;100928.16;5047691;28;20041;-72
2023/11/18 07:59:20;;;;;;;3.17;1.70;;;;;;;8.77;100.00;100985.50;5047892;28;20033;-75
2023/11/18 08:01:46;;;;;;;5.28;1.60;;;;;;;9.38;100.00;100990.25;5048027;28;20025;-79
2023/11/18 08:04:14;;;;;;;1.40;1.10;;;;;;;8.91;100.00;100974.47;5047726;28;20056;-78
2023/11/18 08:06:40;;;;;;;0.82;0.77;;;;;;;8.49;100.00;100867.38;5048039;28;20049;-75
2023/11/18 08:09:13;;;;;;;3.05;1.45;;;;;;;9.23;100.00;100968.34;5044727;28;20373;-74
2023/11/18 08:11:41;;;;;;;3.05;1.20;;;;;;;9.03;100.00;100959.19;5045711;28;20041;-75
2023/11/18 08:14:09;;;;;;;5.53;1.50;;;;;;;8.87;100.00;100892.50;5046504;28;20037;-72
2023/11/18 08:16:35;;;;;;;1.75;0.70;;;;;;;8.97;100.00;100936.41;5045686;28;20037;-73
2023/11/18 08:19:05;;;;;;;2.45;0.90;;;;;;;9.02;100.00;100911.84;5047003;28;20032;-73
2023/11/18 08:21:31;;;;;;;1.25;1.10;;;;;;;8.80;100.00;100859.59;5046645;28;20040;-73
2023/11/18 08:23:58;;;;;;;1.42;0.77;;;;;;;8.56;100.00;100868.19;5046900;28;20025;-72
2023/11/18 08:26:24;;;;;;;8.55;1.15;;;;;;;10.22;100.00;100940.44;5045812;28;20033;-74
2023/11/18 08:28:49;;;;;;;3.08;1.00;;;;;;;9.04;100.00;100857.72;5047031;28;20623;-75
2023/11/18 08:31:18;;;;;;;3.45;2.50;;;;;;;8.68;100.00;100848.69;5047031;28;20166;-71
2023/11/18 08:33:45;;;;;;;7.47;1.90;;;;;;;8.77;100.00;100825.78;5047104;28;20124;-75
2023/11/18 08:36:12;;;;;;;1.95;1.30;;;;;;;8.42;100.00;100782.13;5029268;28;20043;-77
2023/11/18 08:38:38;;;;;;;1.42;1.05;;;;;;;9.17;100.00;100917.66;5046701;28;20033;-73
2023/11/18 08:41:05;;;;;;;2.58;1.60;;;;;;;9.31;100.00;100909.97;5047250;28;20414;-74
2023/11/18 08:43:30;;;;;;;2.60;1.10;;;;;;;9.09;100.00;100927.00;5044702;28;20068;-73
2023/11/18 08:45:56;;;;;;;2.15;1.13;;;;;;;9.21;100.00;100914.22;5029457;28;20056;-73
2023/11/18 08:48:22;;;;;;;3.15;1.50;;;;;;;9.17;100.00;100896.53;5047128;28;20051;-72
2023/11/18 08:50:48;;;;;;;1.85;1.30;;;;;;;8.71;100.00;100815.69;5045869;28;20487;-74
2023/11/18 08:53:17;;;;;;;1.42;1.00;;;;;;;9.03;100.00;100883.09;5047495;28;20041;-73
2023/11/18 08:55:54;;;;;;;2.92;1.65;;;;;;;9.34;100.00;100854.09;5046145;28;20033;-74
2023/11/18 08:58:21;;;;;;;1.00;0.80;;;;;;;9.26;100.00;100855.84;5046356;28;20430;-73
2023/11/18 09:00:54;;;;;;;1.70;0.85;;;;;;;9.39;100.00;100843.03;5029771;28;20029;-71
2023/11/18 09:03:36;;;;;;;3.42;0.65;;;;;;;9.10;100.00;100770.59;5045863;28;20112;-72
2023/11/18 09:06:05;;;;;;;3.58;1.17;;;;;;;9.45;100.00;100848.06;5047209;28;20041;-75
2023/11/18 09:08:35;;;;;;;4.00;2.58;;;;;;;9.26;100.00;100851.63;5047794;28;20029;-77
2023/11/18 09:11:14;;;;;;;2.08;0.70;;;;;;;9.37;100.00;100844.75;5047941;28;20029;-75
2023/11/18 09:13:42;;;;;;;0.75;0.50;;;;;;;9.33;100.00;100858.31;5033458;28;20033;-78
2023/11/18 09:16:09;;;;;;;1.40;1.00;;;;;;;9.13;100.00;100818.78;5050321;28;20028;-74
2023/11/18 09:18:35;;;;;;;1.50;0.85;;;;;;;9.26;100.00;100811.03;5049800;28;20538;-75
2023/11/18 09:21:03;;;;;;;0.85;0.73;;;;;;;9.25;100.00;100823.75;5033718;28;20110;-77
2023/11/18 09:23:40;;;;;;;23.52;12.65;;;;;;;9.17;100.00;100811.09;5032943;28;20091;-73
2023/11/18 09:26:07;;;;;;;1.15;0.77;;;;;;;8.88;100.00;100786.84;5049981;28;20037;-82
2023/11/18 09:28:34;;;;;;;2.13;0.70;;;;;;;9.03;100.00;100784.19;5050938;28;20041;-81
2023/11/18 09:31:02;;;;;;;0.90;0.73;;;;;;;9.26;100.00;100775.53;5031549;28;20240;-72
2023/11/18 09:33:33;;;;;;;1.05;0.55;;;;;;;8.53;100.00;100689.16;5050496;28;20112;-77
2023/11/18 09:35:59;;;;;;;1.42;0.50;;;;;;;9.18;100.00;100743.47;5032305;28;20040;-76
2023/11/18 09:38:32;;;;;;;3.67;1.10;;;;;;;9.16;100.00;100718.13;5049532;28;20033;-76
2023/11/18 09:41:02;;;;;;;2.60;1.00;;;;;;;8.74;100.00;100653.47;5032140;28;20060;-71
2023/11/18 09:43:47;;;;;;;1.10;0.70;;;;;;;8.87;100.00;100663.47;5047481;28;20258;-76
2023/11/18 09:46:32;;;;;;;2.70;0.90;;;;;;;9.35;100.00;100723.81;5032251;28;20036;-72
2023/11/18 09:49:17;;;;;;;1.30;0.80;;;;;;;9.21;100.00;100738.38;5047164;28;20035;-75
2023/11/18 09:51:47;;;;;;;2.70;1.30;;;;;;;9.03;100.00;100662.47;5049300;28;20021;-74
2023/11/18 09:54:36;;;;;;;2.28;0.70;;;;;;;8.75;100.00;100661.91;5050006;28;20048;-75
2023/11/18 09:57:39;;;;;;;1.63;0.80;;;;;;;8.35;100.00;100587.13;5048848;28;20067;-75
2023/11/18 10:00:26;;;;;;;2.33;1.38;;;;;;;9.28;100.00;100707.00;5049334;28;20060;-75
2023/11/18 10:02:52;;;;;;;3.38;1.70;;;;;;;8.82;100.00;100614.50;5050099;28;20029;-74
2023/11/18 10:05:26;;;;;;;2.05;1.30;;;;;;;8.74;100.00;100640.78;5049062;28;20045;-71
2023/11/18 10:07:52;;;;;;;2.80;1.80;;;;;;;9.04;100.00;100682.72;5032396;28;20439;-72
2023/11/18 10:10:20;;;;;;;4.15;1.40;;;;;;;9.47;100.00;100689.00;5044196;28;20182;-74
2023/11/18 10:12:57;;;;;;;2.88;1.17;;;;;;;9.43;100.00;100706.81;5049950;28;20033;-79
2023/11/18 10:15:24;;;;;;;1.50;1.08;;;;;;;9.27;100.00;100678.25;5050510;28;20036;-81
2023/11/18 10:18:53;;;;;;;3.17;1.50;;;;;;;9.01;100.00;100672.63;5048181;28;20035;-81
2023/11/18 10:20:57;;;;;;;5.53;1.30;;;;;;;9.40;100.00;100663.72;5035937;28;20056;-71
2023/11/18 10:23:27;;;;;;;2.75;1.75;;;;;;;9.01;100.00;100647.28;5048371;28;20025;-72
2023/11/18 10:25:56;;;;;;;2.13;0.98;;;;;;;8.65;100.00;100580.06;5031564;28;20051;-83
2023/11/18 10:28:27;;;;;;;2.45;1.40;;;;;;;9.31;100.00;100649.44;5030697;28;20039;-72
2023/11/18 10:30:53;;;;;;;1.38;0.90;;;;;;;8.83;100.00;100632.25;5049125;28;20029;-74
2023/11/18 10:33:19;;;;;;;2.58;1.02;;;;;;;8.66;100.00;100644.25;5048533;28;20029;-70
2023/11/18 10:35:51;;;;;;;3.42;1.17;;;;;;;8.57;100.00;100629.97;5048832;28;20047;-73
2023/11/18 10:38:18;;;;;;;3.25;1.92;;;;;;;8.71;100.00;100648.41;5046419;28;20521;-79
2023/11/18 10:40:44;;;;;;;5.90;2.10;;;;;;;9.59;100.00;100622.00;5048014;28;20128;-73
2023/11/18 10:43:15;;;;;;;1.45;0.95;;;;;;;8.69;100.00;100568.19;5048477;28;20097;-71
2023/11/18 10:45:42;;;;;;;2.05;1.27;;;;;;;8.80;100.00;100555.38;5046521;28;20040;-69
2023/11/18 10:48:08;;;;;;;5.63;3.38;;;;;;;8.85;100.00;100606.88;5046319;28;20406;-68
2023/11/18 10:50:34;;;;;;;2.03;1.00;;;;;;;8.63;100.00;100594.44;5047942;28;20159;-71
2023/11/18 10:53:01;;;;;;;1.65;1.13;;;;;;;8.57;100.00;100527.78;5029825;28;20084;-71
2023/11/18 10:55:38;;;;;;;1.75;1.00;;;;;;;8.68;100.00;100561.44;5046126;28;20412;-72
2023/11/18 10:58:09;;;;;;;2.92;1.13;;;;;;;8.74;100.00;100564.75;5048286;28;20028;-69
2023/11/18 11:00:49;;;;;;;;;;;;;;;8.83;100.00;100596.78;5031035;28;20040;-72
2023/11/18 11:03:15;;;;;;;3.05;1.42;;;;;;;8.78;100.00;100560.47;5029756;28;20410;-73
2023/11/18 11:05:42;;;;;;;3.30;1.10;;;;;;;8.32;100.00;100495.97;5030081;28;20131;-68
2023/11/18 11:08:08;;;;;;;5.13;1.60;;;;;;;8.27;100.00;100485.03;5046665;28;20530;-71
2023/11/18 11:10:35;;;;;;;4.68;1.70;;;;;;;8.31;100.00;100471.47;5046461;28;20074;-73
2023/11/18 11:13:04;;;;;;;0.85;0.70;;;;;;;8.59;100.00;100534.50;5048723;28;20029;-72
2023/11/18 11:15:32;;;;;;;2.33;0.82;;;;;;;8.17;100.00;100448.81;5044665;28;20028;-70
2023/11/18 11:18:23;;;;;;;2.60;0.82;;;;;;;8.56;100.00;100510.88;5046929;28;20411;-72
2023/11/18 11:20:51;;;;;;;2.22;1.50;;;;;;;8.64;100.00;100534.44;4692404;28;10000161;-72
2023/11/18 11:23:45;;;;;;;1.85;0.93;;;;;;;8.72;100.00;100528.44;5044977;28;20040;-70
2023/11/18 11:26:40;;;;;;;1.92;0.90;;;;;;;8.67;100.00;100544.56;5044788;28;20075;-72